<?xml version="1.0" encoding="UTF-8" standalone="no" ?>
<gpx xmlns="http://www.topografix.com/GPX/1/1" xmlns:xsi="http://www.w3.org/2001/XMLSchema-instance" xsi:schemaLocation="http://www.topografix.com/GPX/1/1 http://www.topografix.com/GPX/1/1/gpx.xsd" version="1.1" creator="VisuGPX - https://www.visugpx.com">
  <metadata>
    <name>Etape 2 Férel - Les Moûtiers</name>
    <desc><![CDATA[Randonnée vélo Rennes - Hendaye, empruntant la Vélodyssée à partir de Saint-Brevin-Les-Pins. ]]></desc>
  </metadata>
  <trk>
    <name><![CDATA[Sequence 8]]></name>
    <trkseg>
      <trkpt lat="47.33187" lon="-2.15976">
        <ele>-2</ele>
        <time>2016-07-22T06:08:11Z</time>
      </trkpt>
      <trkpt lat="47.33193" lon="-2.15988">
        <ele>4.5</ele>
        <time>2016-07-22T06:08:16Z</time>
      </trkpt>
      <trkpt lat="47.33199" lon="-2.16006">
        <ele>-1</ele>
        <time>2016-07-22T06:08:21Z</time>
      </trkpt>
      <trkpt lat="47.33205" lon="-2.16027">
        <ele>-1</ele>
        <time>2016-07-22T06:08:26Z</time>
      </trkpt>
      <trkpt lat="47.33189" lon="-2.16038">
        <ele>-2</ele>
        <time>2016-07-22T06:08:31Z</time>
      </trkpt>
      <trkpt lat="47.33163" lon="-2.16021">
        <ele>-2</ele>
        <time>2016-07-22T06:08:36Z</time>
      </trkpt>
      <trkpt lat="47.33135" lon="-2.16002">
        <ele>-3</ele>
        <time>2016-07-22T06:08:41Z</time>
      </trkpt>
      <trkpt lat="47.33107" lon="-2.15983">
        <ele>-4</ele>
        <time>2016-07-22T06:08:46Z</time>
      </trkpt>
      <trkpt lat="47.33078" lon="-2.15966">
        <ele>-4</ele>
        <time>2016-07-22T06:08:51Z</time>
      </trkpt>
      <trkpt lat="47.33049" lon="-2.15953">
        <ele>-3</ele>
        <time>2016-07-22T06:08:56Z</time>
      </trkpt>
      <trkpt lat="47.3302" lon="-2.15938">
        <ele>-3</ele>
        <time>2016-07-22T06:09:01Z</time>
      </trkpt>
      <trkpt lat="47.32993" lon="-2.15929">
        <ele>-3</ele>
        <time>2016-07-22T06:09:06Z</time>
      </trkpt>
      <trkpt lat="47.32965" lon="-2.15919">
        <ele>-3</ele>
        <time>2016-07-22T06:09:11Z</time>
      </trkpt>
      <trkpt lat="47.32936" lon="-2.1591">
        <ele>-3</ele>
        <time>2016-07-22T06:09:16Z</time>
      </trkpt>
      <trkpt lat="47.32907" lon="-2.15901">
        <ele>-3</ele>
        <time>2016-07-22T06:09:21Z</time>
      </trkpt>
      <trkpt lat="47.32877" lon="-2.15893">
        <ele>-3</ele>
        <time>2016-07-22T06:09:26Z</time>
      </trkpt>
      <trkpt lat="47.32848" lon="-2.15889">
        <ele>-3</ele>
        <time>2016-07-22T06:09:31Z</time>
      </trkpt>
      <trkpt lat="47.32819" lon="-2.15883">
        <ele>-3</ele>
        <time>2016-07-22T06:09:36Z</time>
      </trkpt>
      <trkpt lat="47.32791" lon="-2.15881">
        <ele>-3</ele>
        <time>2016-07-22T06:09:41Z</time>
      </trkpt>
      <trkpt lat="47.32763" lon="-2.15877">
        <ele>3</ele>
        <time>2016-07-22T06:09:46Z</time>
      </trkpt>
      <trkpt lat="47.32737" lon="-2.15876">
        <ele>3</ele>
        <time>2016-07-22T06:09:51Z</time>
      </trkpt>
      <trkpt lat="47.32689" lon="-2.15867">
        <ele>1</ele>
        <time>2016-07-22T06:10:00Z</time>
      </trkpt>
      <trkpt lat="47.32684" lon="-2.15866">
        <ele>1</ele>
        <time>2016-07-22T06:10:01Z</time>
      </trkpt>
      <trkpt lat="47.32661" lon="-2.15894">
        <ele>1</ele>
        <time>2016-07-22T06:10:07Z</time>
      </trkpt>
      <trkpt lat="47.32657" lon="-2.1593">
        <ele>1</ele>
        <time>2016-07-22T06:10:11Z</time>
      </trkpt>
      <trkpt lat="47.32654" lon="-2.16008">
        <ele>-3</ele>
        <time>2016-07-22T06:10:20Z</time>
      </trkpt>
      <trkpt lat="47.32654" lon="-2.16025">
        <ele>-2</ele>
        <time>2016-07-22T06:10:22Z</time>
      </trkpt>
      <trkpt lat="47.32653" lon="-2.16063">
        <ele>2</ele>
        <time>2016-07-22T06:10:26Z</time>
      </trkpt>
      <trkpt lat="47.3265" lon="-2.16108">
        <ele>2</ele>
        <time>2016-07-22T06:10:31Z</time>
      </trkpt>
      <trkpt lat="47.32649" lon="-2.16186">
        <ele>1</ele>
        <time>2016-07-22T06:10:40Z</time>
      </trkpt>
      <trkpt lat="47.3265" lon="-2.16203">
        <ele>2</ele>
        <time>2016-07-22T06:10:42Z</time>
      </trkpt>
      <trkpt lat="47.3266" lon="-2.16227">
        <ele>3.4</ele>
        <time>2016-07-22T06:10:46Z</time>
      </trkpt>
      <trkpt lat="47.32673" lon="-2.16237">
        <ele>-1</ele>
        <time>2016-07-22T06:10:54Z</time>
      </trkpt>
      <trkpt lat="47.32672" lon="-2.16238">
        <ele>-1</ele>
        <time>2016-07-22T06:10:56Z</time>
      </trkpt>
    </trkseg>
  </trk>
</gpx>